createdAt,value
2019-02-11T00:03:47.679Z,69.1
2019-02-11T00:08:56.432Z,69.4
2019-02-11T00:14:05.183Z,69.2
2019-02-11T00:19:14.014Z,69.5
2019-02-11T00:29:31.614Z,69.8
2019-02-11T00:34:40.312Z,69.9
2019-02-11T00:39:49.128Z,70.2
2019-02-11T00:44:57.790Z,69.7
2019-02-11T00:50:06.419Z,70.4
2019-02-11T00:55:15.150Z,69.7
2019-02-11T01:05:32.600Z,69.9
2019-02-11T01:10:41.201Z,69.3
2019-02-11T01:15:49.940Z,69.5
2019-02-11T01:20:58.498Z,69.6
2019-02-11T01:31:15.809Z,69
2019-02-11T01:41:33.213Z,68.1
2019-02-11T01:51:50.468Z,67.8
2019-02-11T01:56:59.029Z,67.5
2019-02-11T02:02:07.703Z,67.5
2019-02-11T02:07:16.468Z,67.9
2019-02-11T02:17:33.729Z,67.8
2019-02-11T02:22:42.334Z,68.3
2019-02-11T02:27:50.946Z,68.1
2019-02-11T02:32:59.704Z,68.1
2019-02-11T02:38:08.246Z,67.9
2019-02-11T02:43:17.019Z,68.7
2019-02-11T02:53:34.266Z,68
2019-02-11T02:58:42.810Z,68.1
2019-02-11T03:09:00.106Z,68.3
2019-02-11T03:14:08.767Z,68.3
2019-02-11T03:24:26.128Z,67.7
2019-02-11T03:29:34.632Z,68
2019-02-11T03:39:51.866Z,68.1
2019-02-11T03:50:09.093Z,67.3
2019-02-11T03:55:17.705Z,67.3
2019-02-11T04:00:29.302Z,67.5
2019-02-11T04:05:34.944Z,66.7
2019-02-11T04:10:43.550Z,66.3
2019-02-11T04:15:52.237Z,66.7
2019-02-11T04:21:02.303Z,66.4
2019-02-11T04:26:09.405Z,66.5
2019-02-11T04:36:26.472Z,66.2
2019-02-11T04:41:35.045Z,66
2019-02-11T04:51:52.155Z,65.4
2019-02-11T04:57:00.703Z,65.1
2019-02-11T05:07:17.938Z,65.3
2019-02-11T05:12:26.679Z,64.6
2019-02-11T05:17:35.005Z,64
2019-02-11T05:22:43.559Z,64.1
2019-02-11T05:27:52.044Z,64.2
2019-02-11T05:33:00.724Z,64
2019-02-11T05:38:09.259Z,64.2
2019-02-11T05:43:17.874Z,63.5
2019-02-11T05:53:34.921Z,62.2
2019-02-11T06:03:52.180Z,62.2
2019-02-11T06:09:00.712Z,61.9
2019-02-11T06:14:09.310Z,62.2
2019-02-11T06:19:20.823Z,62.2
2019-02-11T06:24:26.552Z,61.9
2019-02-11T06:29:35.217Z,62.7
2019-02-11T06:39:52.347Z,63.6
2019-02-11T06:55:18.362Z,62.4
2019-02-11T07:00:26.814Z,62.4
2019-02-11T07:05:35.411Z,62.6
2019-02-11T07:10:43.993Z,62.5
2019-02-11T07:15:52.665Z,62.7
2019-02-11T07:21:01.096Z,63
2019-02-11T07:26:09.633Z,63.6
2019-02-11T07:31:18.257Z,63.3
2019-02-11T07:36:26.854Z,63.4
2019-02-11T07:41:35.314Z,63.4
2019-02-11T07:46:43.924Z,63.3
2019-02-11T07:57:01.027Z,63.8
2019-02-11T08:02:09.605Z,63.3
2019-02-11T08:07:18.332Z,63.6
2019-02-11T08:38:11.622Z,60.4
2019-02-11T08:43:17.970Z,59.9
2019-02-11T08:48:26.504Z,60.2
2019-02-11T08:58:44.201Z,60.4
2019-02-11T09:03:51.944Z,60
2019-02-11T09:09:00.810Z,60.1
2019-02-11T09:14:09.056Z,60.4
2019-02-11T09:24:26.055Z,62
2019-02-11T09:29:34.483Z,63
2019-02-11T09:34:42.978Z,62.4
2019-02-11T09:39:51.536Z,60.6
2019-02-11T09:44:59.928Z,61
2019-02-11T09:50:08.417Z,61.9
2019-02-11T10:00:25.180Z,62.3
2019-02-11T10:05:33.635Z,61.4
2019-02-11T10:15:50.453Z,60.5
2019-02-11T10:20:58.817Z,60.3
2019-02-11T10:26:07.127Z,60.3
2019-02-11T10:31:15.452Z,59.9
2019-02-11T10:41:32.153Z,59.8
2019-02-11T10:51:48.904Z,59.6
2019-02-11T11:02:05.601Z,55.5
2019-02-11T11:07:13.748Z,55.7
2019-02-11T11:12:21.959Z,56.2
2019-02-11T11:32:54.153Z,49.4
2019-02-11T11:38:02.067Z,43.2
2019-02-11T11:43:10.049Z,41.2
2019-02-11T12:03:42.463Z,48.2
2019-02-11T12:19:07.172Z,51.2
2019-02-11T12:24:15.425Z,49.6
2019-02-11T12:29:23.490Z,49.4
2019-02-11T12:34:31.708Z,50.7
2019-02-11T12:44:47.891Z,49.1
2019-02-11T12:55:03.967Z,44.2
2019-02-11T13:05:20.348Z,45.5
2019-02-11T13:10:28.347Z,45.4
2019-02-11T13:15:36.578Z,45.6
2019-02-11T13:20:44.565Z,46.1
2019-02-11T13:25:52.739Z,46.6
2019-02-11T13:46:24.936Z,48.9
2019-02-11T13:51:32.755Z,49.6
2019-02-11T13:56:40.862Z,51
2019-02-11T14:06:56.807Z,51
2019-02-11T14:17:12.956Z,50.5
2019-02-11T14:27:29.176Z,51.9
2019-02-11T14:32:37.004Z,51.5
2019-02-11T14:37:45.156Z,51.9
2019-02-11T14:42:53.137Z,53.1
2019-02-11T14:48:04.152Z,53.3
2019-02-11T14:58:17.473Z,52.9
2019-02-11T15:03:25.473Z,52.6
2019-02-11T15:08:33.626Z,49.4
2019-02-11T15:13:41.711Z,50.1
2019-02-11T15:34:14.483Z,52.3
2019-02-11T15:39:22.774Z,53.2
2019-02-11T15:44:30.937Z,53.5
2019-02-11T15:49:39.277Z,54
2019-02-11T15:54:47.912Z,54.6
2019-02-11T15:59:55.760Z,52.4
2019-02-11T16:10:12.341Z,50.3
2019-02-11T16:20:29.020Z,52.7
2019-02-11T16:30:45.820Z,52.6
2019-02-11T16:35:54.224Z,52.7
2019-02-11T16:41:02.758Z,53.6
2019-02-11T16:51:19.374Z,52.6
2019-02-11T16:56:27.759Z,52.5
2019-02-11T17:11:53.107Z,53.8
2019-02-11T17:17:01.623Z,54
2019-02-11T17:32:27.178Z,55.1
2019-02-11T17:37:35.536Z,55.1
2019-02-11T17:42:44.010Z,54.8
2019-02-11T17:53:01.138Z,55.5
2019-02-11T17:58:09.714Z,56.3
2019-02-11T18:03:18.307Z,57.3
2019-02-11T18:18:43.976Z,57.9
2019-02-11T18:23:52.592Z,58.5
2019-02-11T18:29:01.211Z,59
2019-02-11T18:34:09.791Z,58.2
2019-02-11T18:39:18.397Z,57.5
2019-02-11T18:54:44.321Z,58.4
2019-02-11T18:59:52.859Z,58.6
2019-02-11T19:10:10.103Z,59.7
2019-02-11T19:15:18.697Z,59.9
2019-02-11T19:25:35.957Z,59.7
2019-02-11T19:30:44.510Z,59.1
2019-02-11T19:35:53.202Z,58.8
2019-02-11T19:41:01.809Z,58.8
2019-02-11T19:46:10.458Z,58.2
2019-02-11T19:56:27.789Z,58.5
2019-02-11T20:01:36.377Z,58.4
2019-02-11T20:06:44.932Z,58.5
2019-02-11T20:11:53.573Z,59.2
2019-02-11T20:17:02.205Z,58.9
2019-02-11T20:22:10.952Z,58.6
2019-02-11T20:32:28.201Z,59.9
2019-02-11T20:37:36.785Z,60
2019-02-11T20:53:02.771Z,60.7
2019-02-11T21:03:20.129Z,60.7
2019-02-11T21:23:54.978Z,61.3
2019-02-11T21:29:03.671Z,62.2
2019-02-11T21:34:12.240Z,61.2
2019-02-11T21:39:20.918Z,61.8
2019-02-11T21:44:29.622Z,61.5
2019-02-11T21:49:38.296Z,62.3
2019-02-11T21:54:47.004Z,62.3
2019-02-11T21:59:55.778Z,61.6
2019-02-11T22:05:04.373Z,62.3
2019-02-11T22:15:21.781Z,62.2
2019-02-11T22:20:30.555Z,62
2019-02-11T22:25:39.173Z,62.7
2019-02-11T22:30:47.859Z,62.6
2019-02-11T22:35:56.584Z,62.6
2019-02-11T22:41:05.299Z,62.1
2019-02-11T22:46:14.041Z,61.9
2019-02-11T22:51:22.780Z,62.4
2019-02-11T22:56:31.596Z,62.4
2019-02-11T23:06:48.971Z,62.5
2019-02-11T23:11:57.784Z,62.3
2019-02-11T23:17:06.527Z,62.5
2019-02-11T23:22:15.198Z,62.4
2019-02-11T23:27:23.973Z,63
2019-02-11T23:32:32.717Z,62.6
2019-02-11T23:42:50.433Z,62
2019-02-11T23:47:59.035Z,62
2019-02-11T23:58:16.528Z,62.3
